createdAt,value
2023-01-17T00:00:11.175Z,0.00
2023-01-17T00:01:11.084Z,0.00
2023-01-17T00:02:11.108Z,0.00
2023-01-17T00:03:11.080Z,0.00
2023-01-17T00:04:11.139Z,0.00
2023-01-17T00:05:11.042Z,0.00
2023-01-17T00:06:11.050Z,0.00
2023-01-17T00:07:11.022Z,0.00
2023-01-17T00:08:11.035Z,0.00
2023-01-17T00:09:11.023Z,0.00
2023-01-17T00:10:11.010Z,0.00
2023-01-17T00:11:10.978Z,0.00
2023-01-17T00:12:10.990Z,0.00
2023-01-17T00:13:10.974Z,0.00
2023-01-17T00:14:10.963Z,0.00
2023-01-17T00:15:10.943Z,0.00
2023-01-17T00:16:11.008Z,0.00
2023-01-17T00:17:10.913Z,0.00
2023-01-17T00:18:10.925Z,0.00
2023-01-17T00:19:10.898Z,0.00
2023-01-17T00:20:10.892Z,0.00
2023-01-17T00:21:10.880Z,0.00
2023-01-17T00:22:10.921Z,0.00
2023-01-17T00:23:10.852Z,0.00
2023-01-17T00:24:10.867Z,0.00
2023-01-17T00:25:10.830Z,0.00
2023-01-17T00:26:10.851Z,0.00
2023-01-17T00:27:10.814Z,0.00
2023-01-17T00:28:10.833Z,0.00
2023-01-17T00:29:10.791Z,0.00
2023-01-17T00:30:10.826Z,0.00
2023-01-17T00:31:10.819Z,0.00
2023-01-17T00:32:10.775Z,0.00
2023-01-17T00:33:10.742Z,0.00
2023-01-17T00:34:10.771Z,0.00
2023-01-17T00:35:10.728Z,0.00
2023-01-17T00:36:10.753Z,0.00
2023-01-17T00:37:10.720Z,0.00
2023-01-17T00:38:10.703Z,0.00
2023-01-17T00:39:10.711Z,0.00
2023-01-17T00:40:10.681Z,0.00
2023-01-17T00:41:10.668Z,0.00
2023-01-17T00:42:10.663Z,0.00
2023-01-17T00:43:10.640Z,0.00
2023-01-17T00:44:10.657Z,0.00
2023-01-17T00:45:10.658Z,0.00
2023-01-17T00:46:10.749Z,0.00
2023-01-17T00:47:10.603Z,0.00
2023-01-17T00:48:10.627Z,0.00
2023-01-17T00:49:10.600Z,0.00
2023-01-17T00:50:10.617Z,0.00
2023-01-17T00:51:10.557Z,0.00
2023-01-17T00:52:10.565Z,0.00
2023-01-17T00:53:10.568Z,0.00
2023-01-17T00:54:10.571Z,0.00
2023-01-17T00:55:10.553Z,0.00
2023-01-17T00:56:10.547Z,0.00
2023-01-17T00:57:10.507Z,0.00
2023-01-17T00:58:10.506Z,0.00
2023-01-17T00:59:10.477Z,0.00
2023-01-17T01:00:10.494Z,0.00
2023-01-17T01:01:10.617Z,0.00
2023-01-17T01:02:10.532Z,0.00
2023-01-17T01:03:10.441Z,0.00
2023-01-17T01:04:10.440Z,0.00
2023-01-17T01:05:10.418Z,0.00
2023-01-17T01:06:10.450Z,0.00
2023-01-17T01:07:10.385Z,0.00
2023-01-17T01:08:10.397Z,0.00
2023-01-17T01:09:10.396Z,0.00
2023-01-17T01:10:10.394Z,0.00
2023-01-17T01:11:10.382Z,0.00
2023-01-17T01:12:10.350Z,0.00
2023-01-17T01:13:10.330Z,0.00
2023-01-17T01:14:10.347Z,0.00
2023-01-17T01:15:10.303Z,0.00
2023-01-17T01:16:10.367Z,0.00
2023-01-17T01:17:10.311Z,0.00
2023-01-17T01:18:10.302Z,0.00
2023-01-17T01:19:10.263Z,0.00
2023-01-17T01:20:10.307Z,0.00
2023-01-17T01:21:10.242Z,0.00
2023-01-17T01:22:10.261Z,0.00
2023-01-17T01:23:10.243Z,0.00
2023-01-17T01:24:10.230Z,0.00
2023-01-17T01:25:10.220Z,0.00
2023-01-17T01:26:10.222Z,0.00
2023-01-17T01:27:10.179Z,0.00
2023-01-17T01:28:10.206Z,0.00
2023-01-17T01:29:10.154Z,0.00
2023-01-17T01:30:10.169Z,0.00
2023-01-17T01:31:10.184Z,0.00
2023-01-17T01:32:10.149Z,0.00
2023-01-17T01:33:10.142Z,0.00
2023-01-17T01:34:10.117Z,0.00
2023-01-17T01:35:10.107Z,0.00
2023-01-17T01:36:10.109Z,0.00
2023-01-17T01:37:10.084Z,0.00
2023-01-17T01:38:10.081Z,0.00
2023-01-17T01:39:10.102Z,0.00
2023-01-17T01:40:10.062Z,0.00
2023-01-17T01:41:10.041Z,0.00
2023-01-17T01:42:10.070Z,0.00
2023-01-17T01:43:10.012Z,0.00
2023-01-17T01:44:10.034Z,0.00
2023-01-17T01:45:10.000Z,0.00
2023-01-17T01:46:10.107Z,0.00
2023-01-17T01:47:09.983Z,0.00
2023-01-17T01:48:09.963Z,0.00
2023-01-17T01:49:09.977Z,0.00
2023-01-17T01:50:09.942Z,0.00
2023-01-17T01:51:09.957Z,0.00
2023-01-17T01:52:09.926Z,0.00
2023-01-17T01:53:09.922Z,0.00
2023-01-17T01:54:09.899Z,0.00
2023-01-17T01:55:09.924Z,0.00
2023-01-17T01:56:09.880Z,0.00
2023-01-17T01:57:09.895Z,0.00
2023-01-17T01:58:09.886Z,0.00
2023-01-17T01:59:09.854Z,0.00
2023-01-17T02:00:09.840Z,0.00
2023-01-17T02:01:09.958Z,0.00
2023-01-17T02:02:09.817Z,0.00
2023-01-17T02:03:09.838Z,0.00
2023-01-17T02:04:10.116Z,0.00
2023-01-17T02:05:09.804Z,0.00
2023-01-17T02:06:09.787Z,0.00
2023-01-17T02:07:09.788Z,0.00
2023-01-17T02:08:09.759Z,0.00
2023-01-17T02:09:09.757Z,0.00
2023-01-17T02:10:09.764Z,0.00
2023-01-17T02:11:09.761Z,0.00
2023-01-17T02:12:09.729Z,0.00
2023-01-17T02:13:09.732Z,0.00
2023-01-17T02:14:09.705Z,0.00
2023-01-17T02:15:09.689Z,0.00
2023-01-17T02:16:09.714Z,0.00
2023-01-17T02:17:09.674Z,0.00
2023-01-17T02:18:09.672Z,0.00
2023-01-17T02:19:09.647Z,0.00
2023-01-17T02:20:09.630Z,0.00
2023-01-17T02:21:09.645Z,0.00
2023-01-17T02:22:09.609Z,0.00
2023-01-17T02:23:09.631Z,0.00
2023-01-17T02:24:09.608Z,0.00
2023-01-17T02:25:09.614Z,0.00
2023-01-17T02:26:09.559Z,0.00
2023-01-17T02:27:09.569Z,0.00
2023-01-17T02:28:09.550Z,0.00
2023-01-17T02:29:09.557Z,0.00
2023-01-17T07:00:56.437Z,3.00
2023-01-17T07:01:57.241Z,3.00
2023-01-17T07:02:57.230Z,4.00
2023-01-17T07:03:57.250Z,2.00
2023-01-17T07:04:57.195Z,7.00
2023-01-17T07:05:57.203Z,12.00
2023-01-17T07:06:57.177Z,11.00
2023-01-17T07:07:57.194Z,10.00
2023-01-17T07:08:57.161Z,14.00
2023-01-17T07:09:57.179Z,17.00
2023-01-17T07:10:57.131Z,19.00
2023-01-17T07:11:57.144Z,21.00
2023-01-17T07:12:57.108Z,25.00
2023-01-17T07:13:57.149Z,31.00
2023-01-17T07:14:57.086Z,30.00
2023-01-17T07:15:57.132Z,32.00
2023-01-17T07:16:57.069Z,39.00
2023-01-17T07:17:57.081Z,41.00
2023-01-17T07:18:57.082Z,42.00
2023-01-17T07:19:57.054Z,50.00
2023-01-17T07:20:57.031Z,54.00
2023-01-17T07:21:57.065Z,57.00
2023-01-17T07:22:57.011Z,61.00
2023-01-17T07:23:57.013Z,64.00
2023-01-17T07:24:57.009Z,66.00
2023-01-17T07:25:57.001Z,72.00
2023-01-17T07:26:56.971Z,74.00
2023-01-17T07:27:56.972Z,80.00
2023-01-17T07:28:56.944Z,83.00
2023-01-17T07:29:56.947Z,89.00
2023-01-17T07:30:56.951Z,92.00
2023-01-17T07:31:56.943Z,97.00
2023-01-17T07:32:56.901Z,101.00
2023-01-17T07:33:56.917Z,108.00
2023-01-17T07:34:56.898Z,110.00
2023-01-17T07:35:56.891Z,114.00
2023-01-17T07:36:56.889Z,117.00
2023-01-17T07:37:56.868Z,123.00
2023-01-17T07:38:56.836Z,128.00
2023-01-17T07:39:56.843Z,134.00
2023-01-17T07:40:56.816Z,139.00
2023-01-17T07:41:56.820Z,143.00
2023-01-17T07:42:56.831Z,148.00
2023-01-17T07:43:56.822Z,153.00
2023-01-17T07:44:56.778Z,158.00
2023-01-17T07:45:56.781Z,160.00
2023-01-17T07:46:56.785Z,167.00
2023-01-17T07:47:56.758Z,172.00
2023-01-17T07:48:56.759Z,177.00
2023-01-17T07:49:56.746Z,179.00
2023-01-17T07:50:56.728Z,183.00
2023-01-17T07:51:56.729Z,187.00
2023-01-17T07:52:56.695Z,189.00
2023-01-17T07:53:56.701Z,193.00
2023-01-17T07:54:56.723Z,196.00
2023-01-17T07:55:56.709Z,198.00
2023-01-17T07:56:56.702Z,204.00
2023-01-17T07:57:56.705Z,210.00
2023-01-17T07:58:56.642Z,214.00
2023-01-17T07:59:56.649Z,220.00
2023-01-17T08:00:56.702Z,224.00
2023-01-17T08:01:56.792Z,232.00
2023-01-17T08:02:56.589Z,235.00
2023-01-17T08:03:56.724Z,245.00
2023-01-17T08:04:56.585Z,252.00
2023-01-17T08:05:56.571Z,258.00
2023-01-17T08:06:56.561Z,263.00
2023-01-17T08:07:56.558Z,266.00
2023-01-17T08:08:57.088Z,269.00
2023-01-17T08:09:56.556Z,271.00
2023-01-17T08:10:56.510Z,273.00
2023-01-17T08:11:56.529Z,276.00
2023-01-17T08:12:56.491Z,279.00
2023-01-17T08:13:56.498Z,279.00
2023-01-17T08:14:56.474Z,279.00
2023-01-17T08:15:56.510Z,279.00
2023-01-17T08:16:56.467Z,276.00
2023-01-17T08:17:56.469Z,275.00
2023-01-17T08:18:56.424Z,272.00
2023-01-17T08:19:56.445Z,272.00
2023-01-17T08:20:56.401Z,272.00
2023-01-17T08:21:56.410Z,272.00
2023-01-17T08:22:56.375Z,272.00
2023-01-17T08:23:56.403Z,273.00
2023-01-17T08:24:56.393Z,274.00
2023-01-17T08:25:56.374Z,274.00
2023-01-17T08:26:56.386Z,275.00
2023-01-17T08:27:56.340Z,275.00
2023-01-17T08:28:56.336Z,275.00
2023-01-17T08:29:56.317Z,276.00
2023-01-17T08:30:56.349Z,276.00
2023-01-17T08:31:56.308Z,275.00
2023-01-17T08:32:56.306Z,277.00
2023-01-17T08:33:56.276Z,280.00
2023-01-17T08:34:56.294Z,279.00
2023-01-17T08:35:56.240Z,285.00
2023-01-17T08:36:56.327Z,285.00
2023-01-17T08:37:56.239Z,286.00
2023-01-17T08:38:56.231Z,289.00
2023-01-17T08:39:56.222Z,289.00
2023-01-17T08:40:56.211Z,292.00
2023-01-17T08:41:56.200Z,293.00
2023-01-17T08:42:56.233Z,295.00
2023-01-17T08:43:56.177Z,296.00
2023-01-17T08:44:56.164Z,297.00
2023-01-17T08:45:56.280Z,299.00
2023-01-17T08:46:56.157Z,301.00
2023-01-17T08:47:56.126Z,303.00
2023-01-17T08:48:56.168Z,304.00
2023-01-17T08:49:56.122Z,305.00
2023-01-17T08:50:56.106Z,307.00
2023-01-17T08:51:56.077Z,307.00
2023-01-17T08:52:56.088Z,308.00
2023-01-17T08:53:56.063Z,308.00
2023-01-17T08:54:56.099Z,310.00
2023-01-17T08:55:56.034Z,310.00
2023-01-17T08:56:56.043Z,315.00
2023-01-17T08:57:56.015Z,317.00
2023-01-17T08:58:56.049Z,321.00
2023-01-17T08:59:55.991Z,325.00
2023-01-17T09:00:56.051Z,326.00
2023-01-17T09:01:56.191Z,333.00
2023-01-17T09:02:55.977Z,338.00
2023-01-17T09:03:55.991Z,345.00
2023-01-17T09:04:55.969Z,347.00
2023-01-17T09:05:55.931Z,343.00
2023-01-17T09:06:55.947Z,342.00
2023-01-17T09:07:55.912Z,339.00
2023-01-17T09:08:55.944Z,331.00
2023-01-17T09:09:55.943Z,325.00
2023-01-17T09:10:55.926Z,329.00
2023-01-17T09:11:55.869Z,335.00
2023-01-17T09:12:55.892Z,335.00
2023-01-17T09:13:55.866Z,336.00
2023-01-17T09:14:55.871Z,337.00
2023-01-17T09:15:55.853Z,337.00
2023-01-17T09:16:55.859Z,337.00
2023-01-17T09:17:55.806Z,338.00
2023-01-17T09:18:55.847Z,338.00
2023-01-17T09:19:55.809Z,340.00
2023-01-17T09:20:55.831Z,342.00
2023-01-17T09:21:55.798Z,342.00
2023-01-17T09:22:55.789Z,343.00
2023-01-17T09:23:55.762Z,346.00
2023-01-17T09:24:55.756Z,345.00
2023-01-17T09:25:55.744Z,344.00
2023-01-17T09:26:55.747Z,343.00
2023-01-17T09:27:55.735Z,347.00
2023-01-17T09:28:55.721Z,349.00
2023-01-17T09:29:55.685Z,350.00
2023-01-17T09:30:55.749Z,352.00
2023-01-17T09:31:55.663Z,353.00
2023-01-17T09:32:55.676Z,353.00
2023-01-17T09:33:55.659Z,354.00
2023-01-17T09:34:55.665Z,355.00
2023-01-17T09:35:55.623Z,356.00
2023-01-17T09:36:55.624Z,358.00
2023-01-17T09:37:57.238Z,363.00
2023-01-17T09:38:55.619Z,363.00
2023-01-17T09:39:55.597Z,364.00
2023-01-17T09:40:55.581Z,364.00
2023-01-17T09:41:55.579Z,364.00
2023-01-17T09:42:55.567Z,365.00
2023-01-17T09:43:55.534Z,366.00
2023-01-17T09:44:55.542Z,366.00
2023-01-17T09:45:55.573Z,367.00
2023-01-17T09:46:55.575Z,370.00
2023-01-17T09:47:55.511Z,371.00
2023-01-17T09:48:55.505Z,373.00
2023-01-17T09:49:55.479Z,375.00
2023-01-17T09:50:55.480Z,376.00
2023-01-17T09:51:55.454Z,376.00
2023-01-17T09:52:55.486Z,379.00
2023-01-17T09:53:55.453Z,379.00
2023-01-17T09:54:55.434Z,380.00
2023-01-17T09:55:55.415Z,381.00
2023-01-17T09:56:55.415Z,383.00
2023-01-17T09:57:55.405Z,383.00
2023-01-17T09:58:55.399Z,384.00
2023-01-17T10:00:02.963Z,384.00
2023-01-17T10:00:55.511Z,384.00
2023-01-17T10:01:55.603Z,384.00
2023-01-17T10:02:55.530Z,384.00
2023-01-17T10:03:55.490Z,387.00
2023-01-17T10:04:55.339Z,387.00
2023-01-17T10:05:55.328Z,387.00
2023-01-17T10:06:55.309Z,389.00
2023-01-17T10:07:55.291Z,388.00
2023-01-17T10:08:55.307Z,390.00
2023-01-17T10:09:55.286Z,392.00
2023-01-17T10:10:55.274Z,394.00
2023-01-17T10:11:55.305Z,397.00
2023-01-17T10:12:55.254Z,398.00
2023-01-17T10:13:55.231Z,399.00
2023-01-17T10:14:55.220Z,397.00
2023-01-17T10:15:55.213Z,399.00
2023-01-17T10:16:55.532Z,400.00
2023-01-17T10:17:55.179Z,401.00
2023-01-17T10:18:55.187Z,403.00
2023-01-17T10:19:55.195Z,404.00
2023-01-17T10:20:55.171Z,404.00
2023-01-17T10:21:55.144Z,404.00
2023-01-17T10:22:55.188Z,404.00
2023-01-17T10:23:55.126Z,404.00
2023-01-17T10:24:55.130Z,404.00
2023-01-17T10:25:55.096Z,405.00
2023-01-17T10:26:55.105Z,405.00
2023-01-17T10:27:55.091Z,406.00
2023-01-17T10:28:55.101Z,398.00
2023-01-17T10:29:55.068Z,403.00
2023-01-17T10:30:55.116Z,415.00
2023-01-17T10:31:55.042Z,416.00
2023-01-17T10:32:55.079Z,417.00
2023-01-17T10:33:55.030Z,419.00
2023-01-17T10:34:55.043Z,411.00
2023-01-17T10:35:55.015Z,397.00
2023-01-17T10:36:55.010Z,386.00
2023-01-17T10:37:54.979Z,382.00
2023-01-17T10:38:54.985Z,382.00
2023-01-17T10:39:54.955Z,387.00
2023-01-17T10:40:54.988Z,385.00
2023-01-17T10:41:54.955Z,384.00
2023-01-17T10:42:54.933Z,384.00
2023-01-17T10:43:54.914Z,388.00
2023-01-17T10:44:54.934Z,392.00
2023-01-17T10:45:54.949Z,399.00
2023-01-17T10:46:54.907Z,402.00
2023-01-17T10:47:54.890Z,404.00
2023-01-17T10:48:54.910Z,406.00
2023-01-17T10:49:54.861Z,422.00
2023-01-17T10:50:54.875Z,434.00
2023-01-17T10:51:54.842Z,434.00
2023-01-17T10:52:54.832Z,435.00
2023-01-17T10:53:54.806Z,431.00
2023-01-17T10:54:54.842Z,417.00
2023-01-17T10:55:54.803Z,410.00
2023-01-17T10:56:54.803Z,410.00
2023-01-17T10:57:54.777Z,409.00
2023-01-17T10:58:54.786Z,412.00
2023-01-17T10:59:54.770Z,411.00
2023-01-17T11:00:54.771Z,413.00
2023-01-17T11:01:54.910Z,407.00
2023-01-17T11:02:54.820Z,403.00
2023-01-17T11:03:54.713Z,403.00
2023-01-17T11:04:54.742Z,403.00
2023-01-17T11:05:54.681Z,406.00
2023-01-17T11:06:58.257Z,410.00
2023-01-17T11:07:54.819Z,418.00
2023-01-17T11:08:54.679Z,425.00
2023-01-17T11:09:54.647Z,427.00
2023-01-17T11:10:54.662Z,431.00
2023-01-17T11:11:54.623Z,437.00
2023-01-17T11:12:54.684Z,447.00
2023-01-17T11:13:54.615Z,472.00
2023-01-17T11:14:54.605Z,478.00
2023-01-17T11:15:54.604Z,489.00
2023-01-17T11:16:54.581Z,517.00
2023-01-17T11:17:54.555Z,554.00
2023-01-17T11:18:54.571Z,610.00
2023-01-17T11:19:54.563Z,709.00
2023-01-17T11:20:54.545Z,733.00
2023-01-17T11:21:54.531Z,668.00
2023-01-17T11:22:54.545Z,623.00
2023-01-17T11:23:54.516Z,652.00
2023-01-17T11:24:54.507Z,1123.00
2023-01-17T11:25:54.472Z,1279.00
2023-01-17T11:26:54.473Z,1035.00
2023-01-17T11:27:54.459Z,1252.00
2023-01-17T11:28:54.475Z,1252.00
2023-01-17T11:29:54.446Z,1305.00
2023-01-17T11:30:54.482Z,1124.00
2023-01-17T11:31:54.419Z,929.00
2023-01-17T11:32:54.419Z,812.00
2023-01-17T11:33:54.386Z,883.00
2023-01-17T11:34:54.405Z,955.00
2023-01-17T11:35:54.389Z,1014.00
2023-01-17T11:36:54.379Z,939.00
2023-01-17T11:37:54.352Z,843.00
2023-01-17T11:38:54.347Z,926.00
2023-01-17T11:39:54.331Z,925.00
2023-01-17T11:40:54.345Z,851.00
2023-01-17T11:41:54.315Z,917.00
2023-01-17T11:42:54.596Z,891.00
2023-01-17T11:43:54.303Z,844.00
2023-01-17T11:44:54.287Z,1267.00
2023-01-17T11:45:54.325Z,1499.00
2023-01-17T11:46:54.264Z,1304.00
2023-01-17T11:47:54.240Z,1390.00
2023-01-17T11:48:56.131Z,1238.00
2023-01-17T11:49:54.224Z,1133.00
2023-01-17T11:50:54.235Z,1117.00
2023-01-17T11:51:54.223Z,1087.00
2023-01-17T11:52:54.223Z,1072.00
2023-01-17T11:53:54.194Z,1174.00
2023-01-17T11:54:54.201Z,1190.00
2023-01-17T11:55:54.163Z,1051.00
2023-01-17T11:56:54.192Z,1094.00
2023-01-17T11:57:56.408Z,925.00
2023-01-17T11:58:54.145Z,1058.00
2023-01-17T11:59:54.135Z,1256.00
2023-01-17T12:00:54.153Z,1297.00
2023-01-17T12:01:54.116Z,1391.00
2023-01-17T12:02:54.101Z,1632.00
2023-01-17T12:03:54.128Z,1491.00
2023-01-17T12:04:54.114Z,1249.00
2023-01-17T12:05:54.052Z,1249.00
2023-01-17T12:06:57.933Z,1523.00
2023-01-17T12:07:54.042Z,1964.00
2023-01-17T12:08:54.057Z,1554.00
2023-01-17T12:09:54.009Z,1626.00
2023-01-17T12:10:54.052Z,1247.00
2023-01-17T12:11:53.982Z,1003.00
2023-01-17T12:12:54.020Z,883.00
2023-01-17T12:13:53.980Z,729.00
2023-01-17T12:14:54.027Z,763.00
2023-01-17T12:15:53.996Z,931.00
2023-01-17T12:16:53.964Z,1187.00
2023-01-17T12:17:53.956Z,1372.00
2023-01-17T12:18:53.930Z,1433.00
2023-01-17T12:19:53.900Z,1499.00
2023-01-17T12:20:53.907Z,1584.00
2023-01-17T12:21:53.890Z,1303.00
2023-01-17T12:22:53.889Z,1115.00
2023-01-17T12:23:53.891Z,1090.00
2023-01-17T12:24:53.865Z,1020.00
2023-01-17T12:25:53.836Z,960.00
2023-01-17T12:26:53.860Z,1037.00
2023-01-17T12:27:53.823Z,1004.00
2023-01-17T12:28:53.833Z,922.00
2023-01-17T12:29:53.820Z,935.00
2023-01-17T12:30:53.814Z,993.00
2023-01-17T12:31:53.768Z,1175.00
2023-01-17T12:32:53.779Z,1163.00
2023-01-17T12:33:53.765Z,1249.00
2023-01-17T12:34:53.787Z,1367.00
2023-01-17T12:35:53.730Z,1371.00
2023-01-17T12:36:53.772Z,1358.00
2023-01-17T12:38:04.423Z,1216.00
2023-01-17T12:38:53.721Z,1070.00
2023-01-17T12:39:53.713Z,1183.00
2023-01-17T12:40:53.693Z,1312.00
2023-01-17T12:41:53.673Z,1235.00
2023-01-17T12:42:53.657Z,997.00
2023-01-17T12:43:53.670Z,829.00
2023-01-17T12:44:53.631Z,774.00
2023-01-17T12:45:53.635Z,876.00
2023-01-17T12:46:53.670Z,854.00
2023-01-17T12:47:53.619Z,861.00
2023-01-17T12:48:53.601Z,825.00
2023-01-17T12:49:53.606Z,779.00
2023-01-17T12:50:53.578Z,766.00
2023-01-17T12:51:53.628Z,666.00
2023-01-17T12:52:53.538Z,1017.00
2023-01-17T12:53:53.562Z,882.00
2023-01-17T12:54:53.528Z,982.00
2023-01-17T12:55:53.562Z,998.00
2023-01-17T12:56:53.500Z,978.00
2023-01-17T12:57:53.534Z,970.00
2023-01-17T12:58:53.475Z,957.00
2023-01-17T12:59:53.481Z,905.00
2023-01-17T13:00:53.501Z,931.00
2023-01-17T13:01:53.537Z,944.00
2023-01-17T13:02:53.472Z,900.00
2023-01-17T13:03:55.056Z,834.00
2023-01-17T13:04:58.827Z,768.00
2023-01-17T13:05:53.469Z,884.00
2023-01-17T13:06:53.393Z,874.00
2023-01-17T13:07:53.427Z,811.00
2023-01-17T13:08:53.368Z,755.00
2023-01-17T13:09:53.402Z,715.00
2023-01-17T13:10:53.356Z,694.00
2023-01-17T13:11:53.351Z,696.00
2023-01-17T13:12:53.354Z,691.00
2023-01-17T13:13:53.345Z,652.00
2023-01-17T13:14:53.306Z,784.00
2023-01-17T13:15:53.340Z,752.00
2023-01-17T13:16:53.297Z,691.00
2023-01-17T13:17:53.319Z,659.00
2023-01-17T13:18:53.277Z,667.00
2023-01-17T13:19:53.300Z,657.00
2023-01-17T13:20:53.246Z,644.00
2023-01-17T13:21:53.277Z,653.00
2023-01-17T13:22:53.230Z,677.00
2023-01-17T13:23:53.223Z,700.00
2023-01-17T13:24:53.233Z,701.00
2023-01-17T13:25:53.205Z,695.00
2023-01-17T13:26:53.193Z,706.00
2023-01-17T13:27:53.181Z,712.00
2023-01-17T13:28:54.988Z,698.00
2023-01-17T13:29:53.159Z,695.00
2023-01-17T13:30:53.159Z,698.00
2023-01-17T13:31:53.208Z,707.00
2023-01-17T13:32:53.108Z,686.00
2023-01-17T13:33:53.108Z,721.00
2023-01-17T13:34:53.103Z,746.00
2023-01-17T13:35:53.100Z,733.00
2023-01-17T13:36:53.080Z,745.00
2023-01-17T13:37:53.074Z,729.00
2023-01-17T13:38:53.063Z,718.00
2023-01-17T13:39:53.047Z,720.00
2023-01-17T13:40:53.043Z,723.00
2023-01-17T13:41:53.048Z,732.00
2023-01-17T13:42:52.998Z,734.00
2023-01-17T13:43:53.008Z,719.00
2023-01-17T13:44:52.994Z,691.00
2023-01-17T13:45:53.020Z,725.00
2023-01-17T13:46:52.987Z,737.00
2023-01-17T13:47:52.972Z,747.00
2023-01-17T13:48:52.937Z,791.00
2023-01-17T13:49:52.946Z,768.00
2023-01-17T13:50:52.919Z,740.00
2023-01-17T13:51:52.928Z,758.00
2023-01-17T13:52:52.914Z,761.00
2023-01-17T13:53:52.895Z,730.00
2023-01-17T13:54:52.875Z,731.00
2023-01-17T13:55:52.896Z,755.00
2023-01-17T13:56:52.879Z,752.00
2023-01-17T13:57:52.860Z,767.00
2023-01-17T13:58:52.835Z,788.00
2023-01-17T13:59:52.835Z,822.00
2023-01-17T14:00:52.881Z,825.00
2023-01-17T14:01:52.963Z,773.00
2023-01-17T14:02:54.714Z,754.00
2023-01-17T14:03:52.807Z,746.00
2023-01-17T14:04:52.792Z,759.00
2023-01-17T14:05:52.757Z,762.00
2023-01-17T14:06:52.741Z,742.00
2023-01-17T14:07:52.778Z,724.00
2023-01-17T14:08:52.719Z,729.00
2023-01-17T14:09:52.739Z,743.00
2023-01-17T14:10:52.700Z,743.00
2023-01-17T14:11:52.709Z,744.00
2023-01-17T14:12:52.672Z,750.00
2023-01-17T14:13:52.674Z,752.00
2023-01-17T14:14:52.657Z,755.00
2023-01-17T14:15:52.671Z,787.00
2023-01-17T14:16:52.632Z,766.00
2023-01-17T14:17:52.657Z,723.00
2023-01-17T14:18:52.614Z,724.00
2023-01-17T14:19:52.789Z,726.00
2023-01-17T14:20:52.609Z,695.00
2023-01-17T14:21:52.611Z,708.00
2023-01-17T14:22:52.565Z,713.00
2023-01-17T14:23:52.604Z,711.00
2023-01-17T14:24:52.543Z,695.00
2023-01-17T14:25:52.586Z,676.00
2023-01-17T14:26:52.522Z,662.00
2023-01-17T14:27:52.523Z,660.00
2023-01-17T14:28:52.500Z,661.00
2023-01-17T14:29:52.506Z,653.00
2023-01-17T14:30:52.497Z,655.00
2023-01-17T14:31:52.566Z,648.00
2023-01-17T14:32:52.457Z,639.00
2023-01-17T14:33:52.470Z,630.00
2023-01-17T14:34:52.444Z,635.00
2023-01-17T14:35:52.501Z,633.00
2023-01-17T14:36:52.422Z,614.00
2023-01-17T14:37:52.423Z,593.00
2023-01-17T14:38:52.395Z,579.00
2023-01-17T14:39:52.403Z,570.00
2023-01-17T14:40:52.425Z,569.00
2023-01-17T14:41:52.384Z,556.00
2023-01-17T14:42:52.390Z,543.00
2023-01-17T14:43:52.377Z,533.00
2023-01-17T14:44:52.344Z,527.00
2023-01-17T14:45:52.403Z,525.00
2023-01-17T14:46:52.304Z,515.00
2023-01-17T14:47:52.307Z,504.00
2023-01-17T14:48:52.289Z,495.00
2023-01-17T14:49:52.297Z,492.00
2023-01-17T14:50:52.317Z,491.00
2023-01-17T14:51:52.266Z,481.00
2023-01-17T14:52:52.249Z,474.00
2023-01-17T14:53:52.266Z,467.00
2023-01-17T14:54:52.220Z,454.00
2023-01-17T14:55:52.229Z,447.00
2023-01-17T14:56:52.223Z,436.00
2023-01-17T14:57:52.210Z,431.00
2023-01-17T14:58:52.176Z,412.00
2023-01-17T14:59:52.187Z,403.00
2023-01-17T15:00:52.350Z,402.00
2023-01-17T15:02:06.270Z,399.00
2023-01-17T15:02:52.334Z,400.00
2023-01-17T15:03:52.137Z,393.00
2023-01-17T15:04:52.143Z,379.00
2023-01-17T15:05:52.141Z,377.00
2023-01-17T15:06:52.101Z,368.00
2023-01-17T15:07:52.091Z,362.00
2023-01-17T15:08:52.082Z,354.00
2023-01-17T15:09:52.083Z,341.00
2023-01-17T15:10:52.069Z,331.00
2023-01-17T15:11:52.081Z,316.00
2023-01-17T15:12:52.032Z,302.00
2023-01-17T15:13:52.040Z,294.00
2023-01-17T15:14:52.004Z,281.00
2023-01-17T15:15:52.062Z,272.00
2023-01-17T15:16:52.242Z,262.00
2023-01-17T15:17:51.996Z,252.00
2023-01-17T15:18:51.968Z,245.00
2023-01-17T15:19:52.011Z,240.00
2023-01-17T15:20:51.950Z,235.00
2023-01-17T15:21:51.972Z,228.00
2023-01-17T15:22:51.918Z,227.00
2023-01-17T15:23:51.905Z,223.00
2023-01-17T15:24:51.916Z,213.00
2023-01-17T15:25:51.912Z,203.00
2023-01-17T15:26:51.975Z,202.00
2023-01-17T15:27:51.885Z,201.00
2023-01-17T15:28:51.872Z,197.00
2023-01-17T15:29:51.859Z,195.00
2023-01-17T15:30:52.252Z,175.00
2023-01-17T15:31:51.860Z,164.00
2023-01-17T15:32:51.814Z,156.00
2023-01-17T15:33:51.813Z,151.00
2023-01-17T15:34:51.794Z,150.00
2023-01-17T15:35:51.795Z,142.00
2023-01-17T15:36:51.788Z,141.00
2023-01-17T15:37:51.772Z,131.00
2023-01-17T15:38:51.745Z,129.00
2023-01-17T15:39:51.756Z,124.00
2023-01-17T15:40:51.731Z,113.00
2023-01-17T15:41:51.741Z,103.00
2023-01-17T15:42:51.717Z,96.00
2023-01-17T15:43:51.717Z,89.00
2023-01-17T15:44:51.699Z,80.00
2023-01-17T15:45:51.733Z,75.00
2023-01-17T15:46:51.669Z,72.00
2023-01-17T15:47:51.679Z,67.00
2023-01-17T15:48:51.650Z,64.00
2023-01-17T15:49:51.652Z,59.00
2023-01-17T15:50:51.631Z,54.00
2023-01-17T15:51:51.628Z,52.00
2023-01-17T15:52:51.617Z,47.00
2023-01-17T15:53:51.624Z,44.00
2023-01-17T15:54:51.617Z,41.00
2023-01-17T15:55:51.599Z,39.00
2023-01-17T15:56:51.561Z,34.00
2023-01-17T15:57:51.567Z,31.00
2023-01-17T15:58:51.533Z,29.00
2023-01-17T15:59:51.540Z,28.00
2023-01-17T16:00:51.628Z,25.00
2023-01-17T16:01:51.622Z,24.00
2023-01-17T16:02:51.590Z,20.00
2023-01-17T16:03:51.503Z,18.00
2023-01-17T16:04:51.475Z,18.00
2023-01-17T16:05:51.496Z,14.00
2023-01-17T16:06:51.465Z,12.00
2023-01-17T16:07:51.480Z,9.00
2023-01-17T16:08:51.445Z,11.00
2023-01-17T16:09:51.437Z,10.00
2023-01-17T16:10:51.421Z,9.00
2023-01-17T16:11:51.421Z,5.00
2023-01-17T16:12:51.984Z,7.00
2023-01-17T16:13:51.425Z,4.00
2023-01-17T16:15:10.447Z,3.00
2023-01-17T16:15:51.397Z,3.00
2023-01-17T16:16:51.412Z,2.00
2023-01-17T16:17:51.801Z,2.00
2023-01-17T16:18:51.336Z,2.00
2023-01-17T16:19:51.357Z,1.00
2023-01-17T16:20:51.311Z,2.00
2023-01-17T16:21:51.322Z,1.00
2023-01-17T16:22:51.779Z,1.00
2023-01-17T16:23:51.348Z,0.00
2023-01-17T16:24:51.327Z,0.00
2023-01-17T16:25:51.367Z,0.00
2023-01-17T16:26:51.303Z,0.00
2023-01-17T16:27:51.715Z,0.00
2023-01-17T16:28:51.284Z,0.00
2023-01-17T16:29:51.282Z,0.00
2023-01-17T16:30:51.354Z,0.00
2023-01-17T16:31:51.271Z,0.00
2023-01-17T16:32:51.266Z,0.00
2023-01-17T16:33:51.261Z,0.00
2023-01-17T16:34:51.221Z,0.00
2023-01-17T16:35:51.299Z,0.00
2023-01-17T16:36:51.202Z,0.00
2023-01-17T16:37:51.605Z,0.00
2023-01-17T16:38:51.193Z,0.00
2023-01-17T16:39:51.204Z,0.00
2023-01-17T16:40:51.159Z,0.00
2023-01-17T16:41:51.154Z,0.00
2023-01-17T16:42:51.156Z,0.00
2023-01-17T16:43:51.146Z,0.00
2023-01-17T16:44:51.124Z,0.00
2023-01-17T16:45:51.142Z,0.00
2023-01-17T16:46:51.100Z,0.00
2023-01-17T16:47:51.438Z,0.00
2023-01-17T16:48:51.068Z,0.00
2023-01-17T16:49:51.086Z,0.00
2023-01-17T16:50:51.049Z,0.00
2023-01-17T16:51:51.061Z,0.00
2023-01-17T16:52:51.035Z,0.00
2023-01-17T16:53:51.034Z,0.00
2023-01-17T16:54:51.031Z,0.00
2023-01-17T16:55:51.023Z,0.00
2023-01-17T16:56:50.983Z,0.00
2023-01-17T16:57:51.296Z,0.00
2023-01-17T16:58:50.996Z,0.00
2023-01-17T16:59:51.191Z,0.00
2023-01-17T17:00:51.076Z,0.00
2023-01-17T17:01:50.989Z,0.00
2023-01-17T17:02:51.084Z,0.00
2023-01-17T17:03:50.912Z,0.00
2023-01-17T17:04:50.913Z,0.00
2023-01-17T17:05:50.888Z,0.00
2023-01-17T17:06:50.918Z,0.00
2023-01-17T17:07:51.892Z,0.00
2023-01-17T17:08:50.881Z,0.00
2023-01-17T17:09:50.847Z,0.00
2023-01-17T17:10:50.894Z,0.00
2023-01-17T17:11:50.831Z,0.00
2023-01-17T17:12:50.832Z,0.00